sensor_id;sensor_type;location;lat;lon;timestamp;pressure;altitude;pressure_sealevel;temperature;humidity
23446;BME280;11895;48.738;9.320;2023-04-29T00:02:25;98458.13;;;13.34;100.00
23446;BME280;11895;48.738;9.320;2023-04-29T00:04:54;98456.75;;;13.12;100.00
23446;BME280;11895;48.738;9.320;2023-04-29T00:07:25;98456.41;;;13.33;100.00
23446;BME280;11895;48.738;9.320;2023-04-29T00:09:53;98441.72;;;13.37;100.00
23446;BME280;11895;48.738;9.320;2023-04-29T00:12:20;98444.44;;;13.37;100.00
23446;BME280;11895;48.738;9.320;2023-04-29T00:14:48;98439.78;;;13.39;100.00
23446;BME280;11895;48.738;9.320;2023-04-29T00:17:16;98442.28;;;13.42;100.00
23446;BME280;11895;48.738;9.320;2023-04-29T00:19:44;98451.47;;;13.11;100.00
23446;BME280;11895;48.738;9.320;2023-04-29T00:22:11;98453.13;;;13.28;100.00
23446;BME280;11895;48.738;9.320;2023-04-29T00:24:38;98451.22;;;13.30;100.00
23446;BME280;11895;48.738;9.320;2023-04-29T00:27:06;98450.78;;;13.07;100.00
23446;BME280;11895;48.738;9.320;2023-04-29T00:29:33;98452.94;;;13.31;100.00
23446;BME280;11895;48.738;9.320;2023-04-29T00:32:00;98445.97;;;13.27;100.00
23446;BME280;11895;48.738;9.320;2023-04-29T00:34:28;98447.72;;;13.28;100.00
23446;BME280;11895;48.738;9.320;2023-04-29T00:36:55;98444.56;;;13.20;100.00
23446;BME280;11895;48.738;9.320;2023-04-29T00:39:23;98443.81;;;13.03;100.00
23446;BME280;11895;48.738;9.320;2023-04-29T00:41:51;98453.88;;;13.16;100.00
23446;BME280;11895;48.738;9.320;2023-04-29T00:44:19;98451.19;;;13.16;100.00
23446;BME280;11895;48.738;9.320;2023-04-29T00:46:46;98454.06;;;13.12;100.00
23446;BME280;11895;48.738;9.320;2023-04-29T00:49:14;98451.03;;;12.89;100.00
23446;BME280;11895;48.738;9.320;2023-04-29T00:51:43;98462.84;;;13.16;100.00
23446;BME280;11895;48.738;9.320;2023-04-29T00:54:11;98464.88;;;13.12;100.00
23446;BME280;11895;48.738;9.320;2023-04-29T00:56:39;98460.88;;;12.90;100.00
23446;BME280;11895;48.738;9.320;2023-04-29T00:59:10;98469.09;;;12.88;100.00
23446;BME280;11895;48.738;9.320;2023-04-29T01:01:40;98469.84;;;12.90;100.00
23446;BME280;11895;48.738;9.320;2023-04-29T01:04:08;98468.44;;;12.99;100.00
23446;BME280;11895;48.738;9.320;2023-04-29T01:12:49;98467.94;;;12.92;100.00
23446;BME280;11895;48.738;9.320;2023-04-29T01:18:54;98467.56;;;12.98;100.00
23446;BME280;11895;48.738;9.320;2023-04-29T01:21:29;98458.88;;;12.93;100.00
23446;BME280;11895;48.738;9.320;2023-04-29T01:23:57;98470.41;;;12.81;100.00
23446;BME280;11895;48.738;9.320;2023-04-29T01:26:32;98471.50;;;12.78;100.00
23446;BME280;11895;48.738;9.320;2023-04-29T01:29:32;98465.31;;;12.46;100.00
23446;BME280;11895;48.738;9.320;2023-04-29T01:32:31;98473.88;;;12.69;100.00
23446;BME280;11895;48.738;9.320;2023-04-29T01:35:25;98476.50;;;12.84;100.00
23446;BME280;11895;48.738;9.320;2023-04-29T01:38:21;98477.94;;;12.76;100.00
23446;BME280;11895;48.738;9.320;2023-04-29T01:44:22;98472.75;;;12.73;100.00
23446;BME280;11895;48.738;9.320;2023-04-29T01:46:52;98487.03;;;12.75;100.00
23446;BME280;11895;48.738;9.320;2023-04-29T01:49:28;98475.81;;;12.81;100.00
23446;BME280;11895;48.738;9.320;2023-04-29T01:51:55;98471.72;;;12.59;100.00
23446;BME280;11895;48.738;9.320;2023-04-29T01:54:23;98469.00;;;12.45;100.00
23446;BME280;11895;48.738;9.320;2023-04-29T01:56:51;98474.56;;;12.42;100.00
23446;BME280;11895;48.738;9.320;2023-04-29T01:59:29;98472.44;;;12.63;100.00
23446;BME280;11895;48.738;9.320;2023-04-29T02:02:06;98472.59;;;12.60;100.00
23446;BME280;11895;48.738;9.320;2023-04-29T02:04:38;98468.81;;;12.48;100.00
23446;BME280;11895;48.738;9.320;2023-04-29T02:07:07;98477.25;;;12.42;100.00
23446;BME280;11895;48.738;9.320;2023-04-29T02:09:34;98471.41;;;12.50;100.00
23446;BME280;11895;48.738;9.320;2023-04-29T02:12:08;98465.91;;;12.51;100.00
23446;BME280;11895;48.738;9.320;2023-04-29T02:15:01;98470.19;;;12.55;100.00
23446;BME280;11895;48.738;9.320;2023-04-29T02:17:29;98474.59;;;12.56;100.00
23446;BME280;11895;48.738;9.320;2023-04-29T02:19:56;98476.06;;;12.48;100.00
23446;BME280;11895;48.738;9.320;2023-04-29T02:22:25;98470.94;;;12.43;100.00
23446;BME280;11895;48.738;9.320;2023-04-29T02:24:55;98469.91;;;12.30;100.00
23446;BME280;11895;48.738;9.320;2023-04-29T02:27:22;98477.75;;;12.34;100.00
23446;BME280;11895;48.738;9.320;2023-04-29T02:29:49;98472.72;;;12.13;100.00
23446;BME280;11895;48.738;9.320;2023-04-29T02:32:17;98477.94;;;12.16;100.00
23446;BME280;11895;48.738;9.320;2023-04-29T02:34:46;98463.69;;;12.14;100.00
23446;BME280;11895;48.738;9.320;2023-04-29T02:37:15;98468.72;;;12.20;100.00
23446;BME280;11895;48.738;9.320;2023-04-29T02:39:43;98475.47;;;12.27;100.00
23446;BME280;11895;48.738;9.320;2023-04-29T02:42:12;98471.31;;;12.21;100.00
23446;BME280;11895;48.738;9.320;2023-04-29T02:44:39;98474.28;;;12.17;100.00
23446;BME280;11895;48.738;9.320;2023-04-29T02:47:08;98476.22;;;12.15;100.00
23446;BME280;11895;48.738;9.320;2023-04-29T02:49:35;98470.09;;;12.11;100.00
23446;BME280;11895;48.738;9.320;2023-04-29T02:52:02;98472.22;;;12.06;100.00
23446;BME280;11895;48.738;9.320;2023-04-29T02:54:31;98480.03;;;12.11;100.00
23446;BME280;11895;48.738;9.320;2023-04-29T02:56:58;98479.88;;;11.98;100.00
23446;BME280;11895;48.738;9.320;2023-04-29T02:59:25;98469.34;;;11.93;100.00
23446;BME280;11895;48.738;9.320;2023-04-29T03:01:52;98479.72;;;12.01;100.00
23446;BME280;11895;48.738;9.320;2023-04-29T03:04:26;98483.69;;;11.94;100.00
23446;BME280;11895;48.738;9.320;2023-04-29T03:06:55;98479.88;;;11.82;100.00
23446;BME280;11895;48.738;9.320;2023-04-29T03:09:30;98485.13;;;11.85;100.00
23446;BME280;11895;48.738;9.320;2023-04-29T03:11:59;98479.38;;;11.91;100.00
23446;BME280;11895;48.738;9.320;2023-04-29T03:14:26;98486.28;;;11.79;100.00
23446;BME280;11895;48.738;9.320;2023-04-29T03:16:53;98482.59;;;11.82;100.00
23446;BME280;11895;48.738;9.320;2023-04-29T03:19:23;98483.50;;;11.81;100.00
23446;BME280;11895;48.738;9.320;2023-04-29T03:21:51;98485.59;;;11.76;100.00
23446;BME280;11895;48.738;9.320;2023-04-29T03:24:20;98483.69;;;11.78;100.00
23446;BME280;11895;48.738;9.320;2023-04-29T03:26:48;98484.31;;;11.83;100.00
23446;BME280;11895;48.738;9.320;2023-04-29T03:29:18;98474.28;;;11.69;100.00
23446;BME280;11895;48.738;9.320;2023-04-29T03:31:46;98478.47;;;11.75;100.00
23446;BME280;11895;48.738;9.320;2023-04-29T03:34:17;98478.47;;;11.75;100.00
23446;BME280;11895;48.738;9.320;2023-04-29T03:36:53;98480.78;;;11.65;100.00
23446;BME280;11895;48.738;9.320;2023-04-29T03:39:21;98471.81;;;11.65;100.00
23446;BME280;11895;48.738;9.320;2023-04-29T03:41:49;98461.22;;;11.62;100.00
23446;BME280;11895;48.738;9.320;2023-04-29T03:44:16;98465.22;;;11.54;100.00
23446;BME280;11895;48.738;9.320;2023-04-29T03:46:44;98470.97;;;11.48;100.00
23446;BME280;11895;48.738;9.320;2023-04-29T03:49:11;98471.47;;;11.55;100.00
23446;BME280;11895;48.738;9.320;2023-04-29T03:51:39;98467.25;;;11.51;100.00
23446;BME280;11895;48.738;9.320;2023-04-29T03:54:12;98467.78;;;11.24;100.00
23446;BME280;11895;48.738;9.320;2023-04-29T03:56:41;98471.13;;;11.45;100.00
23446;BME280;11895;48.738;9.320;2023-04-29T03:59:10;98475.91;;;11.40;100.00
23446;BME280;11895;48.738;9.320;2023-04-29T04:01:38;98469.97;;;11.33;100.00
23446;BME280;11895;48.738;9.320;2023-04-29T04:04:06;98472.88;;;11.46;100.00
23446;BME280;11895;48.738;9.320;2023-04-29T04:06:37;98471.97;;;11.46;100.00
23446;BME280;11895;48.738;9.320;2023-04-29T04:09:05;98483.94;;;11.42;100.00
23446;BME280;11895;48.738;9.320;2023-04-29T04:11:33;98478.97;;;11.50;100.00
23446;BME280;11895;48.738;9.320;2023-04-29T04:14:02;98482.53;;;11.50;100.00
23446;BME280;11895;48.738;9.320;2023-04-29T04:16:30;98484.09;;;11.54;100.00
23446;BME280;11895;48.738;9.320;2023-04-29T04:18:57;98485.94;;;11.54;100.00
23446;BME280;11895;48.738;9.320;2023-04-29T04:21:25;98481.25;;;11.57;100.00
23446;BME280;11895;48.738;9.320;2023-04-29T04:24:02;98487.25;;;11.63;100.00
23446;BME280;11895;48.738;9.320;2023-04-29T04:26:30;98492.03;;;11.57;100.00
23446;BME280;11895;48.738;9.320;2023-04-29T04:29:23;98489.16;;;11.61;100.00
23446;BME280;11895;48.738;9.320;2023-04-29T04:32:16;98504.56;;;11.58;100.00
23446;BME280;11895;48.738;9.320;2023-04-29T04:34:44;98500.28;;;11.54;100.00
23446;BME280;11895;48.738;9.320;2023-04-29T04:37:12;98504.41;;;11.62;100.00
23446;BME280;11895;48.738;9.320;2023-04-29T04:39:47;98515.19;;;11.62;100.00
23446;BME280;11895;48.738;9.320;2023-04-29T04:42:15;98511.38;;;11.66;100.00
23446;BME280;11895;48.738;9.320;2023-04-29T04:44:44;98511.97;;;11.71;100.00
23446;BME280;11895;48.738;9.320;2023-04-29T04:47:23;98518.75;;;11.78;100.00
23446;BME280;11895;48.738;9.320;2023-04-29T04:49:58;98516.06;;;11.78;100.00
23446;BME280;11895;48.738;9.320;2023-04-29T04:52:26;98515.28;;;11.76;100.00
23446;BME280;11895;48.738;9.320;2023-04-29T04:55:02;98519.56;;;11.80;100.00
23446;BME280;11895;48.738;9.320;2023-04-29T04:57:32;98517.38;;;11.71;100.00
23446;BME280;11895;48.738;9.320;2023-04-29T04:59:59;98530.50;;;11.77;100.00
23446;BME280;11895;48.738;9.320;2023-04-29T05:02:28;98539.31;;;11.80;100.00
23446;BME280;11895;48.738;9.320;2023-04-29T05:04:56;98537.03;;;11.73;100.00
23446;BME280;11895;48.738;9.320;2023-04-29T05:07:27;98541.47;;;11.74;100.00
23446;BME280;11895;48.738;9.320;2023-04-29T05:10:01;98540.34;;;11.78;100.00
23446;BME280;11895;48.738;9.320;2023-04-29T05:12:30;98541.44;;;11.91;100.00
23446;BME280;11895;48.738;9.320;2023-04-29T05:15:02;98543.25;;;12.06;100.00
23446;BME280;11895;48.738;9.320;2023-04-29T05:17:32;98554.94;;;12.07;100.00
23446;BME280;11895;48.738;9.320;2023-04-29T05:20:02;98558.94;;;12.16;100.00
23446;BME280;11895;48.738;9.320;2023-04-29T05:22:32;98560.00;;;12.29;100.00
23446;BME280;11895;48.738;9.320;2023-04-29T05:24:59;98572.00;;;12.39;100.00
23446;BME280;11895;48.738;9.320;2023-04-29T05:27:31;98576.72;;;12.20;100.00
23446;BME280;11895;48.738;9.320;2023-04-29T05:29:59;98581.94;;;12.23;100.00
23446;BME280;11895;48.738;9.320;2023-04-29T05:32:27;98574.06;;;12.50;100.00
23446;BME280;11895;48.738;9.320;2023-04-29T05:34:54;98584.34;;;12.59;100.00
23446;BME280;11895;48.738;9.320;2023-04-29T05:37:24;98589.50;;;12.64;100.00
23446;BME280;11895;48.738;9.320;2023-04-29T05:40:05;98589.69;;;12.45;100.00
23446;BME280;11895;48.738;9.320;2023-04-29T05:42:34;98597.06;;;12.73;100.00
23446;BME280;11895;48.738;9.320;2023-04-29T05:45:09;98593.06;;;12.94;100.00
23446;BME280;11895;48.738;9.320;2023-04-29T05:47:38;98596.25;;;13.17;100.00
23446;BME280;11895;48.738;9.320;2023-04-29T05:50:06;98601.31;;;13.23;100.00
23446;BME280;11895;48.738;9.320;2023-04-29T05:52:33;98606.75;;;13.37;100.00
23446;BME280;11895;48.738;9.320;2023-04-29T05:55:00;98609.75;;;13.47;100.00
23446;BME280;11895;48.738;9.320;2023-04-29T05:57:28;98609.31;;;13.69;100.00
23446;BME280;11895;48.738;9.320;2023-04-29T05:59:55;98617.59;;;13.51;100.00
23446;BME280;11895;48.738;9.320;2023-04-29T06:02:23;98617.53;;;13.23;100.00
23446;BME280;11895;48.738;9.320;2023-04-29T06:04:51;98627.19;;;13.71;100.00
23446;BME280;11895;48.738;9.320;2023-04-29T06:07:35;98628.25;;;13.83;100.00
23446;BME280;11895;48.738;9.320;2023-04-29T06:10:23;98631.63;;;14.01;100.00
23446;BME280;11895;48.738;9.320;2023-04-29T06:12:53;98625.72;;;14.23;100.00
23446;BME280;11895;48.738;9.320;2023-04-29T06:15:24;98625.47;;;14.54;100.00
23446;BME280;11895;48.738;9.320;2023-04-29T06:17:51;98628.53;;;14.77;100.00
23446;BME280;11895;48.738;9.320;2023-04-29T06:20:24;98629.69;;;14.73;100.00
23446;BME280;11895;48.738;9.320;2023-04-29T06:22:52;98636.03;;;14.86;100.00
23446;BME280;11895;48.738;9.320;2023-04-29T06:25:19;98641.19;;;15.03;100.00
23446;BME280;11895;48.738;9.320;2023-04-29T06:27:48;98638.13;;;15.35;100.00
23446;BME280;11895;48.738;9.320;2023-04-29T06:30:19;98640.09;;;15.46;100.00
23446;BME280;11895;48.738;9.320;2023-04-29T06:32:46;98643.44;;;15.63;100.00
23446;BME280;11895;48.738;9.320;2023-04-29T06:35:14;98644.31;;;16.02;100.00
23446;BME280;11895;48.738;9.320;2023-04-29T06:38:01;98647.63;;;16.44;100.00
23446;BME280;11895;48.738;9.320;2023-04-29T06:40:42;98654.25;;;16.40;100.00
23446;BME280;11895;48.738;9.320;2023-04-29T06:43:30;98657.94;;;16.39;100.00
23446;BME280;11895;48.738;9.320;2023-04-29T06:46:34;98653.41;;;16.27;100.00
23446;BME280;11895;48.738;9.320;2023-04-29T06:49:21;98664.47;;;16.36;100.00
23446;BME280;11895;48.738;9.320;2023-04-29T06:51:48;98657.06;;;16.51;100.00
23446;BME280;11895;48.738;9.320;2023-04-29T06:54:15;98664.00;;;16.55;100.00
23446;BME280;11895;48.738;9.320;2023-04-29T06:56:43;98658.97;;;16.62;100.00
23446;BME280;11895;48.738;9.320;2023-04-29T06:59:11;98657.03;;;16.64;100.00
23446;BME280;11895;48.738;9.320;2023-04-29T07:01:40;98669.44;;;16.55;100.00
23446;BME280;11895;48.738;9.320;2023-04-29T07:04:11;98667.34;;;16.72;100.00
23446;BME280;11895;48.738;9.320;2023-04-29T07:06:39;98672.25;;;17.03;100.00
23446;BME280;11895;48.738;9.320;2023-04-29T07:09:07;98673.09;;;17.16;100.00
23446;BME280;11895;48.738;9.320;2023-04-29T07:11:39;98674.47;;;17.22;100.00
23446;BME280;11895;48.738;9.320;2023-04-29T07:14:25;98669.00;;;17.46;100.00
23446;BME280;11895;48.738;9.320;2023-04-29T07:16:53;98685.16;;;17.71;100.00
23446;BME280;11895;48.738;9.320;2023-04-29T07:19:22;98680.31;;;17.99;100.00
23446;BME280;11895;48.738;9.320;2023-04-29T07:21:49;98686.88;;;17.96;100.00
23446;BME280;11895;48.738;9.320;2023-04-29T07:24:17;98689.81;;;17.82;100.00
23446;BME280;11895;48.738;9.320;2023-04-29T07:26:46;98687.06;;;17.47;100.00
23446;BME280;11895;48.738;9.320;2023-04-29T07:29:16;98685.97;;;17.26;100.00
23446;BME280;11895;48.738;9.320;2023-04-29T07:31:43;98695.13;;;17.25;100.00
23446;BME280;11895;48.738;9.320;2023-04-29T07:34:11;98694.09;;;17.14;100.00
23446;BME280;11895;48.738;9.320;2023-04-29T07:36:44;98695.03;;;17.26;100.00
23446;BME280;11895;48.738;9.320;2023-04-29T07:39:12;98698.38;;;17.06;100.00
23446;BME280;11895;48.738;9.320;2023-04-29T07:41:43;98698.53;;;17.15;100.00
23446;BME280;11895;48.738;9.320;2023-04-29T07:44:11;98700.31;;;17.16;100.00
23446;BME280;11895;48.738;9.320;2023-04-29T07:46:38;98698.53;;;17.39;100.00
23446;BME280;11895;48.738;9.320;2023-04-29T07:49:08;98704.25;;;17.71;100.00
23446;BME280;11895;48.738;9.320;2023-04-29T07:51:36;98710.81;;;18.27;100.00
23446;BME280;11895;48.738;9.320;2023-04-29T07:54:05;98702.44;;;18.52;100.00
23446;BME280;11895;48.738;9.320;2023-04-29T07:56:33;98702.69;;;18.83;100.00
23446;BME280;11895;48.738;9.320;2023-04-29T07:59:00;98702.13;;;19.00;100.00
23446;BME280;11895;48.738;9.320;2023-04-29T08:01:28;98716.19;;;18.28;100.00
23446;BME280;11895;48.738;9.320;2023-04-29T08:03:55;98719.50;;;18.32;100.00
23446;BME280;11895;48.738;9.320;2023-04-29T08:06:25;98723.63;;;18.37;100.00
23446;BME280;11895;48.738;9.320;2023-04-29T08:08:55;98714.06;;;18.54;100.00
23446;BME280;11895;48.738;9.320;2023-04-29T08:11:22;98717.81;;;18.75;100.00
23446;BME280;11895;48.738;9.320;2023-04-29T08:13:51;98720.50;;;18.98;100.00
23446;BME280;11895;48.738;9.320;2023-04-29T08:21:43;98723.81;;;19.56;100.00
23446;BME280;11895;48.738;9.320;2023-04-29T08:24:11;98721.59;;;19.61;100.00
23446;BME280;11895;48.738;9.320;2023-04-29T08:26:39;98726.19;;;19.61;100.00
23446;BME280;11895;48.738;9.320;2023-04-29T08:29:08;98725.25;;;19.83;100.00
23446;BME280;11895;48.738;9.320;2023-04-29T08:31:36;98730.16;;;19.57;100.00
23446;BME280;11895;48.738;9.320;2023-04-29T08:34:03;98735.25;;;19.61;100.00
23446;BME280;11895;48.738;9.320;2023-04-29T08:36:31;98732.53;;;19.61;100.00
23446;BME280;11895;48.738;9.320;2023-04-29T08:38:58;98738.75;;;19.52;100.00
23446;BME280;11895;48.738;9.320;2023-04-29T08:41:31;98729.88;;;19.27;100.00
23446;BME280;11895;48.738;9.320;2023-04-29T08:43:59;98734.25;;;19.62;100.00
23446;BME280;11895;48.738;9.320;2023-04-29T08:46:27;98729.09;;;20.01;100.00
23446;BME280;11895;48.738;9.320;2023-04-29T08:48:55;98734.06;;;20.28;100.00
23446;BME280;11895;48.738;9.320;2023-04-29T08:51:24;98731.28;;;20.70;100.00
23446;BME280;11895;48.738;9.320;2023-04-29T08:53:52;98725.59;;;20.92;100.00
23446;BME280;11895;48.738;9.320;2023-04-29T08:56:19;98726.78;;;20.99;100.00
23446;BME280;11895;48.738;9.320;2023-04-29T08:58:52;98724.13;;;21.28;100.00
23446;BME280;11895;48.738;9.320;2023-04-29T09:01:29;98733.47;;;21.26;100.00
23446;BME280;11895;48.738;9.320;2023-04-29T09:04:11;98725.69;;;21.21;100.00
23446;BME280;11895;48.738;9.320;2023-04-29T09:06:50;98733.00;;;21.11;100.00
23446;BME280;11895;48.738;9.320;2023-04-29T09:09:19;98729.66;;;20.98;100.00
23446;BME280;11895;48.738;9.320;2023-04-29T09:11:47;98741.97;;;20.83;100.00
23446;BME280;11895;48.738;9.320;2023-04-29T09:14:15;98737.25;;;20.54;100.00
23446;BME280;11895;48.738;9.320;2023-04-29T09:16:46;98738.66;;;20.27;100.00
23446;BME280;11895;48.738;9.320;2023-04-29T09:19:29;98739.00;;;20.13;100.00
23446;BME280;11895;48.738;9.320;2023-04-29T09:22:02;98746.41;;;19.69;100.00
23446;BME280;11895;48.738;9.320;2023-04-29T09:24:31;98746.50;;;19.79;100.00
23446;BME280;11895;48.738;9.320;2023-04-29T09:26:59;98742.47;;;19.51;100.00
23446;BME280;11895;48.738;9.320;2023-04-29T09:29:29;98740.31;;;19.98;100.00
23446;BME280;11895;48.738;9.320;2023-04-29T09:31:59;98751.53;;;20.37;100.00
23446;BME280;11895;48.738;9.320;2023-04-29T09:34:34;98750.31;;;20.09;100.00
23446;BME280;11895;48.738;9.320;2023-04-29T09:37:22;98754.88;;;20.61;100.00
23446;BME280;11895;48.738;9.320;2023-04-29T09:39:51;98753.63;;;21.15;100.00
23446;BME280;11895;48.738;9.320;2023-04-29T09:42:18;98753.44;;;21.38;100.00
23446;BME280;11895;48.738;9.320;2023-04-29T09:44:46;98762.41;;;21.69;100.00
23446;BME280;11895;48.738;9.320;2023-04-29T09:47:13;98754.59;;;21.45;100.00
23446;BME280;11895;48.738;9.320;2023-04-29T09:49:43;98759.22;;;21.54;100.00
23446;BME280;11895;48.738;9.320;2023-04-29T09:52:14;98754.91;;;21.61;100.00
23446;BME280;11895;48.738;9.320;2023-04-29T09:54:46;98765.03;;;21.90;100.00
23446;BME280;11895;48.738;9.320;2023-04-29T09:57:13;98758.69;;;21.79;100.00
23446;BME280;11895;48.738;9.320;2023-04-29T09:59:42;98748.88;;;21.77;100.00
23446;BME280;11895;48.738;9.320;2023-04-29T10:02:14;98752.88;;;21.44;100.00
23446;BME280;11895;48.738;9.320;2023-04-29T10:04:47;98761.84;;;21.65;100.00
23446;BME280;11895;48.738;9.320;2023-04-29T10:07:26;98761.38;;;21.41;100.00
23446;BME280;11895;48.738;9.320;2023-04-29T10:09:55;98763.28;;;21.60;100.00
23446;BME280;11895;48.738;9.320;2023-04-29T10:12:24;98761.56;;;21.59;100.00
23446;BME280;11895;48.738;9.320;2023-04-29T10:15:03;98749.84;;;22.44;100.00
23446;BME280;11895;48.738;9.320;2023-04-29T10:17:45;98753.97;;;22.67;100.00
23446;BME280;11895;48.738;9.320;2023-04-29T10:20:42;98762.25;;;23.04;100.00
23446;BME280;11895;48.738;9.320;2023-04-29T10:23:15;98760.09;;;22.42;100.00
23446;BME280;11895;48.738;9.320;2023-04-29T10:25:46;98758.69;;;22.84;100.00
23446;BME280;11895;48.738;9.320;2023-04-29T10:28:15;98744.19;;;22.55;100.00
23446;BME280;11895;48.738;9.320;2023-04-29T10:30:44;98745.06;;;22.46;100.00
23446;BME280;11895;48.738;9.320;2023-04-29T10:33:18;98751.03;;;22.22;100.00
23446;BME280;11895;48.738;9.320;2023-04-29T10:35:48;98751.34;;;22.75;100.00
23446;BME280;11895;48.738;9.320;2023-04-29T10:40:58;98742.88;;;22.96;92.96
23446;BME280;11895;48.738;9.320;2023-04-29T10:43:30;98735.00;;;23.11;97.56
23446;BME280;11895;48.738;9.320;2023-04-29T10:48:56;98732.13;;;22.75;92.72
23446;BME280;11895;48.738;9.320;2023-04-29T10:51:34;98738.03;;;22.80;99.68
23446;BME280;11895;48.738;9.320;2023-04-29T10:54:12;98728.91;;;22.33;93.78
23446;BME280;11895;48.738;9.320;2023-04-29T10:56:46;98735.09;;;22.92;98.09
23446;BME280;11895;48.738;9.320;2023-04-29T11:02:00;98731.63;;;23.45;96.48
23446;BME280;11895;48.738;9.320;2023-04-29T11:04:30;98728.97;;;23.07;92.73
23446;BME280;11895;48.738;9.320;2023-04-29T11:07:00;98736.75;;;23.12;94.41
23446;BME280;11895;48.738;9.320;2023-04-29T11:09:30;98730.28;;;22.66;100.00
23446;BME280;11895;48.738;9.320;2023-04-29T11:12:02;98722.88;;;22.10;100.00
23446;BME280;11895;48.738;9.320;2023-04-29T11:14:48;98734.94;;;22.56;99.88
23446;BME280;11895;48.738;9.320;2023-04-29T11:17:17;98730.38;;;22.08;92.32
23446;BME280;11895;48.738;9.320;2023-04-29T11:19:49;98727.19;;;22.03;95.37
23446;BME280;11895;48.738;9.320;2023-04-29T11:27:38;98725.56;;;23.23;95.05
23446;BME280;11895;48.738;9.320;2023-04-29T11:30:08;98728.06;;;22.32;87.28
23446;BME280;11895;48.738;9.320;2023-04-29T11:32:37;98730.38;;;21.98;95.12
23446;BME280;11895;48.738;9.320;2023-04-29T11:35:17;98725.03;;;22.36;99.94
23446;BME280;11895;48.738;9.320;2023-04-29T11:37:46;98713.97;;;23.47;94.54
23446;BME280;11895;48.738;9.320;2023-04-29T11:40:14;98720.19;;;24.03;86.01
23446;BME280;11895;48.738;9.320;2023-04-29T11:42:46;98724.75;;;24.12;80.81
23446;BME280;11895;48.738;9.320;2023-04-29T11:45:17;98726.53;;;24.65;78.45
23446;BME280;11895;48.738;9.320;2023-04-29T11:47:46;98713.66;;;25.00;67.70
23446;BME280;11895;48.738;9.320;2023-04-29T11:50:22;98717.34;;;24.82;63.49
23446;BME280;11895;48.738;9.320;2023-04-29T11:52:50;98721.84;;;24.57;57.69
23446;BME280;11895;48.738;9.320;2023-04-29T11:55:18;98732.88;;;24.92;61.08
23446;BME280;11895;48.738;9.320;2023-04-29T11:57:48;98720.16;;;24.91;60.71
23446;BME280;11895;48.738;9.320;2023-04-29T12:00:18;98718.56;;;24.54;62.82
23446;BME280;11895;48.738;9.320;2023-04-29T12:02:48;98728.03;;;24.33;66.82
23446;BME280;11895;48.738;9.320;2023-04-29T12:05:16;98728.78;;;24.18;68.21
23446;BME280;11895;48.738;9.320;2023-04-29T12:07:48;98730.75;;;23.90;75.07
23446;BME280;11895;48.738;9.320;2023-04-29T12:10:16;98724.69;;;23.86;75.11
23446;BME280;11895;48.738;9.320;2023-04-29T12:12:43;98738.28;;;24.23;69.37
23446;BME280;11895;48.738;9.320;2023-04-29T12:15:13;98732.53;;;24.95;70.19
23446;BME280;11895;48.738;9.320;2023-04-29T12:17:41;98724.09;;;25.22;58.09
23446;BME280;11895;48.738;9.320;2023-04-29T12:20:10;98719.72;;;25.62;54.27
23446;BME280;11895;48.738;9.320;2023-04-29T12:22:39;98725.31;;;25.78;57.58
23446;BME280;11895;48.738;9.320;2023-04-29T12:25:09;98726.88;;;26.13;54.21
23446;BME280;11895;48.738;9.320;2023-04-29T12:27:41;98722.78;;;25.43;56.89
23446;BME280;11895;48.738;9.320;2023-04-29T12:30:09;98729.13;;;25.35;61.63
23446;BME280;11895;48.738;9.320;2023-04-29T12:32:38;98733.66;;;24.50;74.12
23446;BME280;11895;48.738;9.320;2023-04-29T12:35:13;98729.19;;;25.09;67.85
23446;BME280;11895;48.738;9.320;2023-04-29T12:37:47;98740.28;;;24.21;73.80
23446;BME280;11895;48.738;9.320;2023-04-29T12:40:17;98735.28;;;24.86;66.10
23446;BME280;11895;48.738;9.320;2023-04-29T12:42:46;98731.53;;;26.05;56.83
23446;BME280;11895;48.738;9.320;2023-04-29T12:45:31;98734.47;;;26.11;52.33
23446;BME280;11895;48.738;9.320;2023-04-29T12:48:01;98734.31;;;25.97;51.92
23446;BME280;11895;48.738;9.320;2023-04-29T12:50:37;98740.16;;;26.26;52.95
23446;BME280;11895;48.738;9.320;2023-04-29T12:53:07;98739.56;;;27.44;48.02
23446;BME280;11895;48.738;9.320;2023-04-29T12:55:37;98742.19;;;28.98;40.61
23446;BME280;11895;48.738;9.320;2023-04-29T12:58:05;98746.94;;;29.63;39.48
23446;BME280;11895;48.738;9.320;2023-04-29T13:00:33;98732.34;;;31.17;35.53
23446;BME280;11895;48.738;9.320;2023-04-29T13:03:02;98737.84;;;29.39;36.83
23446;BME280;11895;48.738;9.320;2023-04-29T13:05:30;98738.16;;;30.38;37.82
23446;BME280;11895;48.738;9.320;2023-04-29T13:07:59;98743.53;;;31.24;33.03
23446;BME280;11895;48.738;9.320;2023-04-29T13:10:26;98743.81;;;30.73;34.47
23446;BME280;11895;48.738;9.320;2023-04-29T13:12:54;98744.88;;;30.72;34.29
23446;BME280;11895;48.738;9.320;2023-04-29T13:15:22;98738.34;;;31.56;32.82
23446;BME280;11895;48.738;9.320;2023-04-29T13:17:49;98747.25;;;31.38;32.24
23446;BME280;11895;48.738;9.320;2023-04-29T13:20:18;98737.47;;;32.23;34.22
23446;BME280;11895;48.738;9.320;2023-04-29T13:22:47;98743.28;;;32.35;31.56
23446;BME280;11895;48.738;9.320;2023-04-29T13:25:15;98748.59;;;33.36;29.91
23446;BME280;11895;48.738;9.320;2023-04-29T13:27:42;98748.41;;;33.95;27.85
23446;BME280;11895;48.738;9.320;2023-04-29T13:30:10;98760.31;;;31.37;31.31
23446;BME280;11895;48.738;9.320;2023-04-29T13:32:37;98750.22;;;31.78;31.63
23446;BME280;11895;48.738;9.320;2023-04-29T13:35:17;98757.84;;;30.86;34.02
23446;BME280;11895;48.738;9.320;2023-04-29T13:37:45;98756.91;;;31.14;34.54
23446;BME280;11895;48.738;9.320;2023-04-29T13:40:13;98747.47;;;31.84;31.90
23446;BME280;11895;48.738;9.320;2023-04-29T13:42:47;98752.28;;;32.23;30.99
23446;BME280;11895;48.738;9.320;2023-04-29T13:45:22;98761.03;;;32.14;30.83